地図

経路データ

SID SEASON NUMBER BASIN SUBBASIN NAME ISO_TIME NATURE LAT LON WMO_WIND WMO_PRES WMO_AGENCY TRACK_TYPE DIST2LAND LANDFALL IFLAG USA_AGENCY USA_ATCF_ID USA_LAT USA_LON USA_RECORD USA_STATUS USA_WIND USA_PRES USA_SSHS USA_R34_NE USA_R34_SE USA_R34_SW USA_R34_NW USA_R50_NE USA_R50_SE USA_R50_SW USA_R50_NW USA_R64_NE USA_R64_SE USA_R64_SW USA_R64_NW USA_POCI USA_ROCI USA_RMW USA_EYE TOKYO_LAT TOKYO_LON TOKYO_GRADE TOKYO_WIND TOKYO_PRES TOKYO_R50_DIR TOKYO_R50_LONG TOKYO_R50_SHORT TOKYO_R30_DIR TOKYO_R30_LONG TOKYO_R30_SHORT TOKYO_LAND CMA_LAT CMA_LON CMA_CAT CMA_WIND CMA_PRES HKO_LAT HKO_LON HKO_CAT HKO_WIND HKO_PRES NEWDELHI_LAT NEWDELHI_LON NEWDELHI_GRADE NEWDELHI_WIND NEWDELHI_PRES NEWDELHI_CI NEWDELHI_DP NEWDELHI_POCI REUNION_LAT REUNION_LON REUNION_TYPE REUNION_WIND REUNION_PRES REUNION_TNUM REUNION_CI REUNION_RMW REUNION_R34_NE REUNION_R34_SE REUNION_R34_SW REUNION_R34_NW REUNION_R50_NE REUNION_R50_SE REUNION_R50_SW REUNION_R50_NW REUNION_R64_NE REUNION_R64_SE REUNION_R64_SW REUNION_R64_NW BOM_LAT BOM_LON BOM_TYPE BOM_WIND BOM_PRES BOM_TNUM BOM_CI BOM_RMW BOM_R34_NE BOM_R34_SE BOM_R34_SW BOM_R34_NW BOM_R50_NE BOM_R50_SE BOM_R50_SW BOM_R50_NW BOM_R64_NE BOM_R64_SE BOM_R64_SW BOM_R64_NW BOM_ROCI BOM_POCI BOM_EYE BOM_POS_METHOD BOM_PRES_METHOD NADI_LAT NADI_LON NADI_CAT NADI_WIND NADI_PRES WELLINGTON_LAT WELLINGTON_LON WELLINGTON_WIND WELLINGTON_PRES DS824_LAT DS824_LON DS824_STAGE DS824_WIND DS824_PRES TD9636_LAT TD9636_LON TD9636_STAGE TD9636_WIND TD9636_PRES TD9635_LAT TD9635_LON TD9635_WIND TD9635_PRES TD9635_ROCI NEUMANN_LAT NEUMANN_LON NEUMANN_CLASS NEUMANN_WIND NEUMANN_PRES MLC_LAT MLC_LON MLC_CLASS MLC_WIND MLC_PRES USA_GUST BOM_GUST BOM_GUST_PER REUNION_GUST REUNION_GUST_PER USA_SEAHGT USA_SEARAD_NE USA_SEARAD_SE USA_SEARAD_SW USA_SEARAD_NW STORM_SPEED STORM_DIR
1974055S20180 1974 17 SP MM NOT_NAMED 1974-02-24 00:00:00 TS -20.4000 180.300 main 307 307 O________OO_O_ jtwc_sh SH251974 -20.4000 -179.700 -1 -20.4000 180.300 TC 35 -20.4000 -179.700 2 -20.4000 -179.700 TC 30 9 199
1974055S20180 1974 17 SP MM NOT_NAMED 1974-02-24 03:00:00 TS -20.8006 180.152 main 340 335 P________PP_P_ SH251974 -20.7950 -179.845 -1 -20.7950 -179.845 TC 35 -20.8174 -179.857 2 -20.7950 -179.845 TC 30 9 199
1974055S20180 1974 17 SP MM NOT_NAMED 1974-02-24 06:00:00 TS -21.2070 179.995 main 372 372 O________OP_O_ jtwc_sh SH251974 -21.2000 180.000 -1 -21.2000 180.000 TC 35 -21.2279 179.978 2 -21.2000 180.000 TC 30 9 201
1974055S20180 1974 17 SP MM NOT_NAMED 1974-02-24 09:00:00 TS -21.6173 179.817 main 405 405 P________PP_P_ SH251974 -21.6149 179.822 -1 -21.6149 179.822 TC 35 -21.6244 179.799 2 -21.6149 179.822 TC 32 9 205
1974055S20180 1974 17 SP MM NOT_NAMED 1974-02-24 12:00:00 TS -22.0000 179.600 main 438 438 O________OO_O_ jtwc_sh SH251974 -22.0000 179.600 -1 -22.0000 179.600 TC 35 -22.0000 179.600 2 -22.0000 179.600 TC 35 8 213
1974055S20180 1974 17 SP MM NOT_NAMED 1974-02-24 15:00:00 TS -22.3234 179.329 main 461 461 P________PP_P_ SH251974 -22.3150 179.315 -1 -22.3150 179.315 TC 35 -22.3486 179.372 2 -22.3150 179.315 TC 35 8 221
1974055S20180 1974 17 SP MM NOT_NAMED 1974-02-24 18:00:00 TS -22.6167 179.026 main 488 488 O________OP_O_ jtwc_sh SH251974 -22.6000 179.000 -1 -22.6000 179.000 TC 35 -22.6666 179.105 2 -22.6000 179.000 TC 35 8 222
1974055S20180 1974 17 SP MM NOT_NAMED 1974-02-24 21:00:00 TS -22.9238 178.751 main 518 517 P________PP_P_ SH251974 -22.9146 178.745 -1 -22.9146 178.745 TC 35 -22.9514 178.785 2 -22.9147 178.730 TC 35 8 225
1974055S20180 1974 17 SP MM NOT_NAMED 1974-02-25 00:00:00 TS -23.2000 178.400 main 548 548 O________OO_O_ jtwc_sh SH251974 -23.2000 178.400 -1 -23.2000 178.400 TC 35 -23.2000 178.400 2 -23.2000 178.400 TC 35 10 241
1974055S20180 1974 17 SP MM NOT_NAMED 1974-02-25 03:00:00 TS -23.3959 177.827 main 570 570 P________PP_P_ SH251974 -23.4229 177.823 -1 -23.4229 177.823 TC 35 -23.3152 177.727 2 -23.4225 177.937 TC 35 12 252
1974055S20180 1974 17 SP MM NOT_NAMED 1974-02-25 06:00:00 TS -23.5523 177.207 main 597 597 O________OP_O_ jtwc_sh SH251974 -23.6000 177.200 -1 -23.6000 177.200 TC 35 -23.4090 177.026 2 -23.6000 177.400 TC 35 12 258
1974055S20180 1974 17 SP MM NOT_NAMED 1974-02-25 09:00:00 TS -23.6457 176.582 main 607 607 P________PP_P_ SH251974 -23.6748 176.556 -1 -23.6748 176.556 TC 35 -23.5728 176.487 2 -23.6605 176.730 TC 35 9 247
1974055S20180 1974 17 SP MM NOT_NAMED 1974-02-25 12:00:00 TS -23.9000 176.300 main 647 647 O________OO_O_ jtwc_sh SH251974 -23.9000 176.300 -1 -23.9000 176.300 TC 35 -23.9000 176.300 2 -23.9000 176.300 TC 35 9 175
1974055S20180 1974 17 SP MM NOT_NAMED 1974-02-25 15:00:00 TS -24.5536 176.673 main 715 715 P________PP_P_ SH251974 -24.4952 176.797 -1 -24.4952 176.797 TC 35 -24.6160 176.774 2 -24.6079 176.324 TC 35 18 144
1974055S20180 1974 17 SP MM NOT_NAMED 1974-02-25 18:00:00 TS -25.3950 177.477 main 794 794 O________OP_O_ jtwc_sh SH251974 -25.3000 177.700 -1 -25.3000 177.700 TC 35 -25.4798 177.610 2 -25.5000 176.900 TC 35 25 138
1974055S20180 1974 17 SP MM NOT_NAMED 1974-02-25 21:00:00 TS -26.3767 178.511 main 906 906 P________PP_P_ SH251974 -26.3536 178.640 -1 -26.3536 178.640 TC 35 -26.3276 178.592 2 -26.4720 178.170 TC 37 24 132
1974055S20180 1974 17 SP MM NOT_NAMED 1974-02-26 00:00:00 TS -27.0000 179.500 main 981 957 O________OO_O_ jtwc_sh SH251974 -27.0000 179.500 -1 -27.0000 179.500 TC 35 -27.0000 179.500 2 -27.0000 179.500 TC 40 14 103
1974055S20180 1974 17 SP MM NOT_NAMED 1974-02-26 03:00:00 TS -26.6798 180.026 main 957 898 P________PP_P_ SH251974 -26.5515 179.986 -1 -26.5515 179.986 TC 35 -27.0806 -179.972 2 -26.5355 -179.896 TC 40 12 38
1974055S20180 1974 17 SP MM NOT_NAMED 1974-02-26 06:00:00 TS -26.0275 180.357 main 890 831 O________OP_O_ jtwc_sh SH251974 -25.7000 -179.700 -1 -25.7000 180.300 TC 35 -27.0102 -179.572 2 -25.7000 -179.600 TC 40 15 25
1974055S20180 1974 17 SP MM NOT_NAMED 1974-02-26 09:00:00 TS -25.3551 180.705 main 834 816 P________PP_P_ SH251974 -24.7952 -179.325 -1 -24.7952 -179.325 TC 35 -27.0348 -179.261 2 -24.7950 -179.268 TC 42 9 42
1974055S20180 1974 17 SP MM NOT_NAMED 1974-02-26 12:00:00 TS -25.3750 181.000 main 844 844 O________OO_O_ jtwc_sh SH251974 -24.7000 -179.000 -1 -24.7000 181.000 TC 35 -27.4000 -179.000 2 -24.7000 -179.000 TC 45 16 162
1974055S20180 1974 17 SP MM NOT_NAMED 1974-02-26 15:00:00 TS -26.9053 181.259 main 1012 974 P________PP_P_ SH251974 -26.3608 -178.736 -1 -26.3608 -178.736 TC 35 -28.5389 -178.748 2 -26.3608 -178.744 TC 42 38 173
1974055S20180 1974 17 SP MM NOT_NAMED 1974-02-26 18:00:00 TS -29.1048 181.494 main 966 788 O________OP_O_ jtwc_sh SH251974 -28.8000 -178.500 -1 -28.8000 181.500 TC 35 -30.0192 -178.524 2 -28.8000 -178.500 TC 40 44 175
1974055S20180 1974 17 SP MM NOT_NAMED 1974-02-26 21:00:00 TS -31.2181 181.724 main 777 617 P________PP_P_ SH251974 -31.0942 -178.272 -1 -31.0942 -178.272 TC 35 -31.5900 -178.287 2 -31.0942 -178.272 TC 40 39 174
1974055S20180 1974 17 SP MM NOT_NAMED 1974-02-27 00:00:00 TS -33.0000 182.000 main 607 538 O________OO_O_ jtwc_sh SH251974 -33.0000 -178.000 -1 -33.0000 182.000 TC 35 -33.0000 -178.000 2 -33.0000 -178.000 TC 40 28 169
1974055S20180 1974 17 SP MM NOT_NAMED 1974-02-27 03:00:00 TS -33.9550 182.360 main 535 511 P________PP_P_ SH251974 -33.9668 -177.635 -1 -33.9668 -177.635 TC 35 -33.9193 -177.656 2 -33.9668 -177.635 TC 40 17 157
1974055S20180 1974 17 SP MM NOT_NAMED 1974-02-27 06:00:00 TS -34.5360 182.787 main 518 495 O________OP_O_ jtwc_sh SH251974 -34.5000 -177.200 -1 -34.5000 182.800 TC 35 -34.6440 -177.250 2 -34.5000 -177.200 TC 40 14 150
1974055S20180 1974 17 SP MM NOT_NAMED 1974-02-27 09:00:00 TS -35.1962 183.242 main 495 495 P________PP_P_ SH251974 -35.1794 -176.751 -1 -35.1794 -176.751 TC 35 -35.2469 -176.770 2 -35.1793 -176.759 TC 37 15 147
1974055S20180 1974 17 SP MM NOT_NAMED 1974-02-27 12:00:00 TS -35.8000 183.800 main 508 508 O________OO_O_ jtwc_sh SH251974 -35.8000 -176.200 -1 -35.8000 183.800 TC 35 -35.8000 -176.200 2 -35.8000 -176.200 TC 35 16 138
1974055S20180 1974 17 SP MM NOT_NAMED 1974-02-27 15:00:00 TS -36.3680 184.539 main 541 541 P________PP_P_ SH251974 -36.3575 -175.494 -1 -36.3575 -175.494 TC 35 -36.3991 -175.421 2 -36.3579 -175.437 TC 35 17 132
1974055S20180 1974 17 SP MM NOT_NAMED 1974-02-27 18:00:00 TS -36.9160 185.358 main 606 606 O________OP_O_ jtwc_sh SH251974 -36.9000 -174.700 -1 -36.9000 185.300 TC 35 -36.9639 -174.566 2 -36.9000 -174.600 TC 35 17 130
1974055S20180 1974 17 SP MM NOT_NAMED 1974-02-27 21:00:00 TS -37.4944 186.198 main 667 667 P________PP_P_ SH251974 -37.4857 -173.841 -1 -37.4857 -173.841 TC 35 -37.5210 -173.753 2 -37.4854 -173.775 TC 35 17 134
1974055S20180 1974 17 SP MM NOT_NAMED 1974-02-28 00:00:00 TS -38.1000 186.900 main 727 727 O________OO_O_ jtwc_sh SH251974 -38.1000 -173.100 -1 -38.1000 186.900 TC 35 -38.1000 -173.100 2 -38.1000 -173.100 TC 35 15 144
1974055S20180 1974 17 SP MM NOT_NAMED 1974-02-28 03:00:00 TS -38.7321 187.343 main 765 765 P________PP_P_ SH251974 -38.7343 -172.622 -1 -38.7343 -172.622 TC 35 -38.7254 -172.698 2 -38.7343 -172.687 TC 32 14 159
1974055S20180 1974 17 SP MM NOT_NAMED 1974-02-28 06:00:00 TS -39.3983 187.548 main 794 794 O________OP_O_ jtwc_sh SH251974 -39.4000 -172.400 -1 -39.4000 187.600 TC 35 -39.3930 -172.510 2 -39.4000 -172.500 TC 30 14 173
1974055S20180 1974 17 SP MM NOT_NAMED 1974-02-28 09:00:00 TS -40.0919 187.572 main 817 815 P________PP_P_ SH251974 -40.0928 -172.392 -1 -40.0928 -172.392 TC 35 -40.0893 -172.468 2 -40.0928 -172.462 TC 27 14 181
1974055S20180 1974 17 SP MM NOT_NAMED 1974-02-28 12:00:00 TS -40.8000 187.500 main 825 O________OO_O_ jtwc_sh SH251974 -40.8000 -172.500 -1 -40.8000 187.500 TC 35 -40.8000 -172.500 6 -40.8000 -172.500 TC 25 14 184

デジタル台風データ・検索

IBTrACS Databaseについて

本データベースは、米国NOAAが公開する1842年以降の世界の熱帯低気圧のベストトラックデータアーカイブInternational Best Track Archive for Climate Stewardship (IBTrACS)を、ウェブで閲覧しやすい形式に変換したものです。

最終更新日:2021-10-25